createdAt,value
2022-10-30T00:02:03.954Z,99.90
2022-10-30T00:05:03.292Z,99.90
2022-10-30T00:20:55.042Z,99.90
2022-10-30T00:27:17.242Z,99.90
2022-10-30T00:37:48.971Z,99.90
2022-10-30T00:41:20.582Z,99.90
2022-10-30T01:45:20.059Z,99.90
2022-10-30T01:48:01.375Z,99.90
2022-10-30T01:50:54.895Z,99.90
2022-10-30T01:53:48.792Z,99.90
2022-10-30T01:56:30.507Z,99.90
2022-10-30T01:59:08.264Z,99.90
2022-10-30T02:01:37.887Z,99.90
2022-10-30T02:04:06.490Z,99.90
2022-10-30T02:06:40.796Z,99.90
2022-10-30T02:09:10.927Z,99.90
2022-10-30T02:11:57.957Z,99.90
2022-10-30T02:14:40.255Z,99.90
2022-10-30T02:17:15.195Z,99.90
2022-10-30T02:19:53.696Z,99.90
2022-10-30T02:22:27.107Z,99.90
2022-10-30T02:24:54.670Z,99.90
2022-10-30T02:27:27.175Z,99.90
2022-10-30T02:29:55.259Z,99.90
2022-10-30T02:32:22.500Z,99.90
2022-10-30T02:34:50.488Z,99.90
2022-10-30T02:37:23.255Z,99.90
2022-10-30T02:39:53.702Z,99.90
2022-10-30T02:42:24.189Z,99.90
2022-10-30T02:44:53.475Z,99.90
2022-10-30T02:47:21.486Z,99.90
2022-10-30T02:49:49.120Z,99.90
2022-10-30T02:52:21.991Z,99.90
2022-10-30T02:54:51.370Z,99.90
2022-10-30T02:57:20.753Z,99.90
2022-10-30T02:59:48.116Z,99.90
2022-10-30T03:04:48.389Z,99.90
2022-10-30T03:07:16.103Z,99.90
2022-10-30T03:09:43.241Z,99.90
2022-10-30T03:12:15.132Z,99.90
2022-10-30T03:14:49.772Z,99.90
2022-10-30T03:17:18.164Z,99.90
2022-10-30T03:19:46.501Z,99.90
2022-10-30T03:22:14.769Z,99.90
2022-10-30T03:24:42.209Z,99.90
2022-10-30T03:27:09.608Z,99.90
2022-10-30T03:29:38.504Z,99.90
2022-10-30T03:32:10.848Z,99.90
2022-10-30T03:34:46.192Z,99.90
2022-10-30T03:37:15.193Z,99.90
2022-10-30T03:42:15.901Z,99.90
2022-10-30T03:44:43.557Z,99.90
2022-10-30T03:47:13.645Z,99.90
2022-10-30T03:49:44.533Z,99.90
2022-10-30T03:52:23.938Z,99.90
2022-10-30T03:54:52.560Z,99.90
2022-10-30T03:57:20.680Z,99.90
2022-10-30T04:00:14.564Z,99.90
2022-10-30T04:02:50.590Z,99.90
2022-10-30T04:05:20.719Z,99.90
2022-10-30T04:07:49.394Z,99.90
2022-10-30T04:12:58.453Z,99.90
2022-10-30T04:15:26.517Z,99.90
2022-10-30T04:18:02.927Z,99.90
2022-10-30T04:20:32.121Z,99.90
2022-10-30T04:23:02.216Z,99.90
2022-10-30T04:25:30.970Z,99.90
2022-10-30T04:28:00.982Z,99.90
2022-10-30T04:30:31.377Z,99.90
2022-10-30T04:32:59.301Z,99.90
2022-10-30T04:35:33.849Z,99.90
2022-10-30T04:38:11.649Z,99.90
2022-10-30T04:40:43.591Z,99.90
2022-10-30T04:43:13.088Z,99.90
2022-10-30T04:45:41.321Z,99.90
2022-10-30T04:48:15.929Z,99.90
2022-10-30T04:50:44.633Z,99.90
2022-10-30T04:53:23.427Z,99.90
2022-10-30T04:55:57.323Z,99.90
2022-10-30T04:58:28.776Z,99.90
2022-10-30T05:01:07.509Z,99.90
2022-10-30T05:03:39.538Z,99.90
2022-10-30T05:06:31.506Z,99.90
2022-10-30T05:09:00.170Z,99.90
2022-10-30T05:11:33.833Z,99.90
2022-10-30T05:14:01.793Z,99.90
2022-10-30T05:16:29.278Z,99.90
2022-10-30T05:19:01.466Z,99.90
2022-10-30T05:21:29.404Z,99.90
2022-10-30T05:23:59.166Z,99.90
2022-10-30T05:26:27.618Z,99.90
2022-10-30T05:28:55.165Z,99.90
2022-10-30T05:34:07.506Z,99.90
2022-10-30T05:36:37.755Z,99.90
2022-10-30T05:39:06.729Z,99.90
2022-10-30T05:41:44.894Z,99.90
2022-10-30T05:44:13.409Z,99.90
2022-10-30T05:46:45.155Z,99.90
2022-10-30T05:49:27.581Z,99.90
2022-10-30T05:51:56.434Z,99.90
2022-10-30T05:54:23.517Z,99.90
2022-10-30T05:57:04.525Z,99.90
2022-10-30T05:59:35.694Z,99.90
2022-10-30T06:02:07.256Z,99.90
2022-10-30T06:04:37.745Z,99.90
2022-10-30T06:07:17.000Z,99.90
2022-10-30T06:09:45.639Z,99.90
2022-10-30T06:12:38.953Z,99.90
2022-10-30T06:15:30.989Z,99.90
2022-10-30T06:18:20.058Z,99.90
2022-10-30T06:21:01.883Z,99.90
2022-10-30T06:23:48.875Z,99.90
2022-10-30T06:26:42.460Z,99.90
2022-10-30T06:29:21.450Z,99.90
2022-10-30T06:31:49.131Z,99.90
2022-10-30T06:34:19.617Z,99.90
2022-10-30T06:36:55.648Z,99.90
2022-10-30T06:39:29.804Z,99.90
2022-10-30T06:42:22.573Z,99.90
2022-10-30T06:45:21.321Z,99.90
2022-10-30T06:47:51.548Z,99.90
2022-10-30T06:50:24.359Z,99.90
2022-10-30T06:52:55.397Z,99.90
2022-10-30T06:55:27.271Z,99.90
2022-10-30T06:58:24.075Z,99.90
2022-10-30T07:01:06.888Z,99.90
2022-10-30T07:04:00.329Z,99.90
2022-10-30T07:06:27.422Z,99.90
2022-10-30T07:08:56.759Z,99.90
2022-10-30T07:11:24.306Z,99.90
2022-10-30T07:14:20.288Z,99.90
2022-10-30T07:16:55.258Z,99.90
2022-10-30T07:19:26.199Z,99.90
2022-10-30T07:22:02.840Z,99.90
2022-10-30T07:24:31.170Z,99.90
2022-10-30T07:27:17.218Z,99.90
2022-10-30T07:30:11.074Z,99.90
2022-10-30T07:33:06.990Z,99.90
2022-10-30T07:36:00.169Z,99.90
2022-10-30T07:38:51.180Z,99.90
2022-10-30T07:41:37.846Z,99.90
2022-10-30T07:44:26.600Z,99.90
2022-10-30T08:24:07.807Z,99.90
2022-10-30T09:01:44.310Z,99.90
2022-10-30T09:04:20.231Z,99.90
2022-10-30T09:07:07.647Z,99.90
2022-10-30T09:09:56.162Z,99.90
2022-10-30T09:12:24.980Z,99.90
2022-10-30T09:14:52.376Z,99.90
2022-10-30T09:17:19.144Z,99.90
2022-10-30T09:22:21.792Z,99.90
2022-10-30T09:24:49.822Z,99.90
2022-10-30T09:27:46.105Z,99.90
2022-10-30T09:30:13.982Z,99.90
2022-10-30T09:32:55.026Z,99.90
2022-10-30T09:35:26.301Z,99.90
2022-10-30T09:37:53.272Z,99.90
2022-10-30T09:40:23.780Z,99.90
2022-10-30T09:42:52.108Z,99.90
2022-10-30T09:46:02.844Z,99.90
2022-10-30T09:48:49.265Z,99.90
2022-10-30T09:51:57.747Z,99.90
2022-10-30T09:54:36.936Z,99.90
2022-10-30T09:57:24.439Z,99.90
2022-10-30T10:00:03.646Z,99.90
2022-10-30T10:02:34.288Z,99.90
2022-10-30T10:05:11.980Z,99.90
2022-10-30T10:08:17.280Z,99.90
2022-10-30T10:11:14.519Z,99.90
2022-10-30T10:14:00.033Z,90.70
2022-10-30T10:16:33.650Z,99.90
2022-10-30T10:19:21.271Z,88.50
2022-10-30T10:21:57.925Z,92.30
2022-10-30T10:24:44.419Z,89.10
2022-10-30T10:27:23.297Z,89.50
2022-10-30T10:30:12.286Z,86.80
2022-10-30T10:32:47.784Z,88.20
2022-10-30T10:35:17.488Z,86.50
2022-10-30T10:38:22.312Z,81.20
2022-10-30T10:40:51.655Z,81.90
2022-10-30T10:43:29.093Z,79.90
2022-10-30T10:46:17.460Z,78.10
2022-10-30T10:48:53.098Z,77.90
2022-10-30T10:51:22.965Z,80.90
2022-10-30T10:53:58.734Z,76.80
2022-10-30T10:56:34.285Z,76.00
2022-10-30T10:59:27.024Z,76.60
2022-10-30T11:02:13.597Z,78.00
2022-10-30T11:04:43.499Z,77.40
2022-10-30T11:07:29.493Z,75.00
2022-10-30T11:09:57.638Z,72.90
2022-10-30T11:12:36.273Z,71.70
2022-10-30T11:15:27.379Z,71.20
2022-10-30T11:18:04.042Z,71.80
2022-10-30T11:20:56.791Z,71.60
2022-10-30T11:23:41.569Z,72.30
2022-10-30T11:26:17.663Z,72.30
2022-10-30T11:28:48.756Z,71.60
2022-10-30T11:31:24.298Z,71.10
2022-10-30T11:33:51.346Z,72.40
2022-10-30T11:36:24.094Z,72.00
2022-10-30T11:38:52.067Z,71.90
2022-10-30T11:41:20.405Z,71.50
2022-10-30T11:43:49.191Z,72.00
2022-10-30T11:46:22.403Z,71.70
2022-10-30T11:48:54.860Z,72.20
2022-10-30T11:51:48.519Z,73.70
2022-10-30T11:54:21.170Z,73.20
2022-10-30T11:56:51.778Z,71.40
2022-10-30T11:59:21.913Z,74.00
2022-10-30T12:02:03.019Z,71.50
2022-10-30T12:04:32.840Z,72.40
2022-10-30T12:07:14.664Z,73.40
2022-10-30T12:09:43.765Z,74.20
2022-10-30T12:12:21.840Z,72.40
2022-10-30T12:14:48.942Z,72.50
2022-10-30T12:17:17.920Z,70.30
2022-10-30T12:19:54.070Z,72.60
2022-10-30T12:22:31.173Z,72.80
2022-10-30T12:25:02.516Z,71.40
2022-10-30T12:27:32.210Z,73.50
2022-10-30T12:30:09.746Z,73.20
2022-10-30T12:32:55.307Z,73.50
2022-10-30T12:35:36.377Z,73.80
2022-10-30T12:38:25.895Z,73.20
2022-10-30T12:41:14.714Z,74.40
2022-10-30T12:43:45.809Z,74.90
2022-10-30T12:46:27.688Z,76.30
2022-10-30T12:49:27.050Z,77.90
2022-10-30T12:52:19.308Z,79.80
2022-10-30T12:55:13.574Z,80.60
2022-10-30T12:57:43.077Z,81.00
2022-10-30T13:00:15.795Z,83.00
2022-10-30T13:02:48.254Z,83.20
2022-10-30T13:05:41.772Z,83.50
2022-10-30T13:08:33.435Z,83.90
2022-10-30T13:11:11.667Z,83.20
2022-10-30T13:13:46.902Z,83.00
2022-10-30T13:16:27.629Z,85.10
2022-10-30T13:19:01.754Z,85.30
2022-10-30T13:21:34.507Z,87.50
2022-10-30T13:24:28.891Z,90.80
2022-10-30T13:27:07.144Z,90.40
2022-10-30T13:29:41.291Z,91.40
2022-10-30T13:32:33.418Z,91.80
2022-10-30T13:35:20.148Z,90.80
2022-10-30T13:38:25.797Z,92.00
2022-10-30T13:41:13.581Z,93.50
2022-10-30T13:43:51.878Z,94.40
2022-10-30T13:46:33.537Z,96.70
2022-10-30T13:49:19.615Z,98.80
2022-10-30T13:52:06.517Z,99.90
2022-10-30T13:54:42.462Z,97.70
2022-10-30T13:57:18.953Z,98.00
2022-10-30T13:59:59.155Z,99.90
2022-10-30T14:02:32.971Z,98.30
2022-10-30T14:05:43.299Z,98.80
2022-10-30T14:08:26.103Z,99.90
2022-10-30T14:11:00.383Z,99.90
2022-10-30T14:14:15.543Z,99.90
2022-10-30T14:16:44.742Z,99.90
2022-10-30T14:19:13.285Z,99.90
2022-10-30T14:21:44.449Z,99.90
2022-10-30T14:24:29.486Z,99.90
2022-10-30T14:27:05.842Z,99.90
2022-10-30T14:29:38.254Z,99.90
2022-10-30T14:32:14.477Z,99.90
2022-10-30T14:34:50.593Z,99.90
2022-10-30T14:37:37.712Z,99.90
2022-10-30T14:40:41.634Z,99.90
2022-10-30T14:43:24.958Z,99.90
2022-10-30T14:46:00.285Z,99.90
2022-10-30T14:48:49.680Z,99.90
2022-10-30T14:51:38.067Z,99.90
2022-10-30T14:54:22.236Z,99.90
2022-10-30T14:56:52.577Z,99.90
2022-10-30T14:59:19.452Z,99.90
2022-10-30T15:01:49.891Z,99.90
2022-10-30T15:04:29.648Z,99.90
2022-10-30T15:07:08.452Z,99.90
2022-10-30T15:09:41.304Z,99.90
2022-10-30T15:12:22.371Z,99.90
2022-10-30T15:15:03.875Z,99.90
2022-10-30T15:17:30.820Z,99.90
2022-10-30T15:20:01.092Z,99.90
2022-10-30T15:22:30.027Z,99.90
2022-10-30T15:24:58.308Z,99.90
2022-10-30T15:27:26.325Z,99.90
2022-10-30T15:29:56.719Z,99.90
2022-10-30T15:32:24.675Z,99.90
2022-10-30T15:35:03.066Z,99.90
2022-10-30T15:37:31.203Z,99.90
2022-10-30T15:40:25.392Z,99.90
2022-10-30T15:42:52.869Z,99.90
2022-10-30T15:45:23.387Z,99.90
2022-10-30T15:48:05.468Z,99.90
2022-10-30T15:50:34.324Z,99.90
2022-10-30T15:53:01.780Z,99.90
2022-10-30T15:55:31.526Z,99.90
2022-10-30T15:58:13.129Z,99.90
2022-10-30T16:00:40.503Z,99.90
2022-10-30T16:03:16.757Z,99.90
2022-10-30T16:05:43.870Z,99.90
2022-10-30T16:08:24.505Z,99.90
2022-10-30T16:10:55.863Z,99.90
2022-10-30T16:13:28.004Z,99.90
2022-10-30T16:15:55.291Z,99.90
2022-10-30T16:18:35.721Z,99.90
2022-10-30T16:21:06.542Z,99.90
2022-10-30T16:23:46.966Z,99.90
2022-10-30T16:26:37.731Z,99.90
2022-10-30T16:29:13.872Z,99.90
2022-10-30T16:31:43.356Z,99.90
2022-10-30T16:34:21.933Z,99.90
2022-10-30T16:36:50.115Z,99.90
2022-10-30T16:39:19.008Z,99.90
2022-10-30T16:41:46.097Z,99.90
2022-10-30T16:44:12.887Z,99.90
2022-10-30T16:46:58.147Z,99.90
2022-10-30T16:49:29.132Z,99.90
2022-10-30T16:52:02.372Z,99.90
2022-10-30T16:54:32.821Z,99.90
2022-10-30T16:57:02.469Z,99.90
2022-10-30T16:59:38.349Z,99.90
2022-10-30T17:02:17.187Z,99.90
2022-10-30T17:04:47.444Z,99.90
2022-10-30T17:07:20.488Z,99.90
2022-10-30T17:09:49.267Z,99.90
2022-10-30T17:12:19.316Z,99.90
2022-10-30T17:14:49.023Z,99.90
2022-10-30T17:17:33.118Z,99.90
2022-10-30T17:20:03.358Z,99.90
2022-10-30T17:22:31.068Z,99.90
2022-10-30T17:24:59.083Z,99.90
2022-10-30T17:27:25.965Z,99.90
2022-10-30T17:29:53.608Z,99.90
2022-10-30T17:32:25.653Z,99.90
2022-10-30T17:35:16.978Z,99.90
2022-10-30T17:37:43.924Z,99.90
2022-10-30T17:40:12.611Z,99.90
2022-10-30T17:42:40.218Z,99.90
2022-10-30T17:45:10.773Z,99.90
2022-10-30T17:47:38.018Z,99.90
2022-10-30T17:50:05.872Z,99.90
2022-10-30T17:52:33.340Z,99.90
2022-10-30T17:55:01.959Z,99.90
2022-10-30T17:57:29.258Z,99.90
2022-10-30T17:59:56.096Z,99.90
2022-10-30T18:02:23.594Z,99.90
2022-10-30T18:04:52.499Z,99.90
2022-10-30T18:07:19.521Z,99.90
2022-10-30T18:09:46.377Z,99.90
2022-10-30T18:12:15.745Z,99.90
2022-10-30T18:14:46.256Z,99.90
2022-10-30T18:17:13.724Z,99.90
2022-10-30T18:19:40.548Z,99.90
2022-10-30T18:22:09.285Z,99.90
2022-10-30T18:27:03.485Z,99.90
2022-10-30T18:29:30.330Z,99.90
2022-10-30T18:31:57.214Z,99.90
2022-10-30T18:34:24.038Z,99.90
2022-10-30T18:36:50.918Z,99.90
2022-10-30T18:39:17.859Z,99.90
2022-10-30T18:41:46.429Z,99.90
2022-10-30T18:44:17.877Z,99.90
2022-10-30T18:46:45.909Z,99.90
2022-10-30T18:49:12.957Z,99.90
2022-10-30T18:51:40.074Z,99.90
2022-10-30T18:54:16.733Z,99.90
2022-10-30T18:56:43.828Z,99.90
2022-10-30T18:59:10.974Z,99.90
2022-10-30T19:01:38.610Z,99.90
2022-10-30T19:04:11.706Z,99.90
2022-10-30T19:06:38.960Z,99.90
2022-10-30T19:09:06.379Z,99.90
2022-10-30T19:11:33.869Z,99.90
2022-10-30T19:14:01.066Z,99.90
2022-10-30T19:16:28.329Z,99.90
2022-10-30T19:18:55.554Z,99.90
2022-10-30T19:21:25.376Z,99.90
2022-10-30T19:23:54.504Z,99.90
2022-10-30T19:26:21.687Z,99.90
2022-10-30T19:28:48.711Z,99.90
2022-10-30T19:31:18.162Z,99.90
2022-10-30T19:33:45.983Z,99.90
2022-10-30T19:36:36.566Z,99.90
2022-10-30T19:39:16.782Z,99.90
2022-10-30T19:44:11.222Z,99.90
2022-10-30T19:46:38.254Z,99.90
2022-10-30T19:49:22.428Z,99.90
2022-10-30T19:51:49.369Z,99.90
2022-10-30T19:54:16.174Z,99.90
2022-10-30T19:56:44.003Z,99.90
2022-10-30T19:59:14.294Z,99.90
2022-10-30T20:01:41.878Z,99.90
2022-10-30T20:04:09.503Z,99.90
2022-10-30T20:06:46.417Z,99.90
2022-10-30T20:09:23.351Z,99.90
2022-10-30T20:11:54.296Z,99.90
2022-10-30T20:14:22.654Z,99.90
2022-10-30T20:16:50.390Z,99.90
2022-10-30T20:19:28.550Z,99.90
2022-10-30T20:22:05.705Z,99.90
2022-10-30T20:24:33.193Z,99.90
2022-10-30T20:27:00.749Z,99.90
2022-10-30T20:29:28.381Z,99.90
2022-10-30T20:31:56.173Z,99.90
2022-10-30T20:34:25.138Z,99.90
2022-10-30T20:36:52.385Z,99.90
2022-10-30T20:39:22.269Z,99.90
2022-10-30T20:41:52.137Z,99.90
2022-10-30T20:44:19.585Z,99.90
2022-10-30T20:46:48.270Z,99.90
2022-10-30T20:49:19.550Z,99.90
2022-10-30T20:51:48.253Z,99.90
2022-10-30T20:56:43.505Z,99.90
2022-10-30T20:59:20.080Z,99.90
2022-10-30T21:01:49.979Z,99.90
2022-10-30T21:04:17.522Z,99.90
2022-10-30T21:09:20.882Z,99.90
2022-10-30T21:11:55.399Z,99.90
2022-10-30T21:14:30.389Z,99.90
2022-10-30T21:17:05.149Z,99.90
2022-10-30T21:19:35.063Z,99.90
2022-10-30T21:22:07.603Z,99.90
2022-10-30T21:24:45.172Z,99.90
2022-10-30T21:27:14.275Z,99.90
2022-10-30T21:29:46.288Z,99.90
2022-10-30T21:32:14.959Z,99.90
2022-10-30T21:34:49.325Z,99.90
2022-10-30T21:37:25.894Z,99.90
2022-10-30T21:39:56.390Z,99.90
2022-10-30T21:45:06.477Z,99.90
2022-10-30T21:47:36.352Z,99.90
2022-10-30T21:50:07.622Z,99.90
2022-10-30T21:52:40.018Z,99.90
2022-10-30T21:55:10.258Z,99.90
2022-10-30T21:57:37.443Z,99.90
2022-10-30T22:00:06.163Z,99.90
2022-10-30T22:02:40.496Z,99.90
2022-10-30T22:05:10.659Z,99.90
2022-10-30T22:07:47.358Z,99.90
2022-10-30T22:10:16.097Z,99.90
2022-10-30T22:12:49.795Z,99.90
2022-10-30T22:19:48.536Z,99.90
2022-10-30T22:22:19.958Z,99.90
2022-10-30T22:24:48.845Z,99.90
2022-10-30T22:27:26.960Z,99.90
2022-10-30T22:29:57.262Z,99.90
2022-10-30T22:32:37.395Z,99.90
2022-10-30T22:35:11.286Z,99.90
2022-10-30T22:37:38.999Z,99.90
2022-10-30T22:40:12.104Z,99.90
2022-10-30T22:45:10.175Z,99.90
2022-10-30T22:47:39.645Z,99.90
2022-10-30T22:50:15.541Z,99.90
2022-10-30T22:52:42.661Z,99.90
2022-10-30T22:55:16.239Z,99.90
2022-10-30T22:57:43.620Z,99.90
2022-10-30T23:00:14.056Z,99.90
2022-10-30T23:02:44.008Z,99.90
2022-10-30T23:05:11.499Z,99.90
2022-10-30T23:07:39.275Z,99.90
2022-10-30T23:10:07.371Z,99.90
2022-10-30T23:12:35.835Z,99.90
2022-10-30T23:15:05.372Z,99.90
2022-10-30T23:20:00.084Z,99.90
2022-10-30T23:27:25.253Z,99.90
2022-10-30T23:29:52.353Z,99.90
2022-10-30T23:32:19.505Z,99.90
2022-10-30T23:34:46.674Z,99.90
2022-10-30T23:37:13.789Z,99.90
2022-10-30T23:39:43.121Z,99.90
2022-10-30T23:42:12.989Z,99.90
2022-10-30T23:44:40.134Z,99.90
2022-10-30T23:47:09.255Z,99.90
2022-10-30T23:49:36.409Z,99.90
2022-10-30T23:52:03.564Z,99.90
2022-10-30T23:54:30.714Z,99.90
2022-10-30T23:56:59.828Z,99.90
2022-10-30T23:59:26.989Z,99.90
